Xin Barag Youqi, China
Current Conditions -  °F | °C
As of 4:00 AM on Monday 22 Dec 2014 (Local Time) from UIAA Reporting Station
Few Clouds Few Clouds  
Wind Chill: 17°   Ceiling: Unl
Heat Index: 25°   Visibility: 6mi
Dew Point: 14°   Wind: 7mph
Humidity: 64%   Direction: 220°SW
Pressure: 29.8"   Gusts: NA
Location:  48.67°N, 116.82°E
Report Text: UIAA 212000Z 22003MPS 190V250 9999 FEW100 M04/M10 Q1009 NOSIGRMK QFE698 29350060
Loading
Personal Weather Stations






























Interactive Weather Map New forecast layout! Learn more

10-Day Weather Forecast

Advertisements
Track Severe Weather on mobile